Çarşamba, Turkey

8:11 PM EEST on August 25, 2016 (GMT +0300)
Carsamba | | Change Station

Elev 16 ft 41.25 °N, 36.57 °E | Updated 21 minutes ago

Light Rain Showers
Light Showers Rain
79 °F
Feels Like 79 °F
N
12
Wind Variable Wind from WNW

Today
High -- | Low -- °F
--% Chance of Precip.
Yesterday
High -- | Low -- °F
Precip. -- in
Pressure 29.89 in
Visibility 3.7 miles
Clouds Few 1500 ft
Mostly Cloudy 3000 ft
Mostly Cloudy 9000 ft
Dew Point 73 °F
Humidity 83%
Rainfall 0.00 in
Snow Depth Not available.
5:53 AM 7:17 PM
Last Quarter, 44% visible
METAR LTFH 251650Z 29010KT 6000 -SHRA FEW015 BKN030 BKN090 26/23 Q1012 TEMPO FM1800 -TSRA
Pressure 29.89 in
Visibility 3.7 miles
Clouds Few 1500 ft
Mostly Cloudy 3000 ft
Mostly Cloudy 9000 ft
Dew Point 73 °F
Humidity 83%
Rainfall 0.00 in
Snow Depth Not available.
5:53 AM 7:17 PM
Last Quarter, 44% visible
METAR LTFH 251650Z 29010KT 6000 -SHRA FEW015 BKN030 BKN090 26/23 Q1012 TEMPO FM1800 -TSRA

10-Day Weather Forecast

×

Almanac

Astronomy

Aug. 25, 2016 Rise Set
Actual Time
Civil Twilight
Nautical Twilight
Astronomical Twilight
Moon
Length of Visible Light
Length of Day
Tomorrow will be .
, % of the Moon is Illuminated

Today's Extremes

Country Highs Country Lows

Community

WunderPhotos

Upload Photos

1,934,877 photos uploaded!

WunderBlog® & News

Nearby

Air Quality

  Air Quality AQ Index Pollutant
Not available.

Snow Depth

Station Depth Elevation

Earthquake Activity

City Distance Mag. Time & Date
Minimum magnitude displayed is 2.5.

Coastal Water Temperatures

Place Temperature

Stations

Nearby Weather Stations

Station Location Temp. Windchill Dew Point Humidity Wind Precip. Elev Updated Type